Aviation Digital Data Service (ADDS)

Output produced by METARs form (1750 UTC 28 March 2017)
found at http://aviationweather.gov/adds/metars/
 
METAR text: KBFM 281653Z 14013KT 10SM SCT028 BKN041 26/22 A3005 RMK AO2 SLP175 T02610217
Conditions at: KBFM (MOBILE/BROOKLEY , AL, US) observed 1653 UTC 28 March 2017
Temperature: 26.1°C (79°F)
Dewpoint: 21.7°C (71°F) [RH = 77%]
Pressure (altimeter): 30.05 inches Hg (1017.7 mb)
[Sea-level pressure: 1017.5 mb]
Winds: from the SE (140 degrees) at 15 MPH (13 knots; 6.8 m/s)
Visibility: 10 or more miles (16+ km)
Ceiling: 4100 feet AGL
Clouds: scattered clouds at 2800 feet AGL
broken clouds at 4100 feet AGL
Weather: no significant weather observed at this time